Главная страница
METAR-TAF:

METAR-TAF

Аэропорты :

Клуж-Напока, Румыния

широта: 46-47N, долгота: 023-34E, высота над уровнем моря: 410 м

Текущие метеонаблюдения

Эта сводка был подготовлена 42 минут назад, в 01:00 UTC
Ветер 2 Узел переменных направлений
Температура 12°C
Влажность 88%
Давление 1020 hPa
Видимость 10 км и более
Нет облачности ниже 1500 м, и нет кучево-дождевой облачности

METAR: LRCL 200100Z VRB02KT CAVOK 12/10 Q1020 R07/19//95

Время: 04:42 (01:42 UTC)

Прогноз

Эта сводка был подготовлена 2 часа и 42 минут назад, в 23:00 UTC
Прогноз действительный с 20-го 00 UTC до 20-го 09 UTC
Ветер 8 Узел от западный
Видимость 10 км и более
Рассеянная облачность на высоте 6000 фута
временами
С 20-го 00 UTC до 20-го 05 UTC
Видимость: 5000 м
дымка

TAF: LRCL 192300Z 2000/2009 27008KT 9999 BKN060 TEMPO 2000/2005 5000 BR

Метеонаблюдения и прогнозы для более 4000 аэропортов (сводки METAR и TAF).

Имеющиеся станции представлены на карте желтыми и красными точками.

Чтобы увидеть название станции, наведите на нее мышь.

Затем щелкните, чтобы увидеть метеонаблюдения и метеопрогнозы.

Управление картой: чтобы увеличить масштаб, щелкните зеленые кнопки с черным крестиком; чтобы уменьшить масштаб, щелкните зеленую кнопку с тире; для просмотра соседних карт щелкайте зеленые стрелки.


METAR-TAF: